Seal Cove, Maine
Current Conditions -  °F | °C
As of 2:15 PM on Friday 28 Nov 2014 (Local Time) from KBHB Reporting Station
Overcast Overcast  
Wind Chill: 20°   Ceiling: 8000
Heat Index: 27°   Visibility: 10mi
Dew Point: 19°   Wind: 6mph
Humidity: 74%   Direction: 330°NNW
Pressure: 30"   Gusts: NA
Location:  44.28°N, 68.4°W
Report Text: KBHB 281915Z AUTO 33005KT 10SM SCT070 OVC080 M03/M07 A3000 RMK AO1
Loading
Personal Weather Stations






























Interactive Weather Map New forecast layout! Learn more

10-Day Weather Forecast

Advertisements
Track Severe Weather on mobile